Timeline UpdatesTrip UpdatesNews PostsPvt Posts♥♥Travel TipsAdmin PostsConv PostsFollowed PostsChat RequestsBlog PostsPNR Posts

Disclaimer
Search
 
 
Mon Nov 24, 2014 09:31:59 ISTHomeTrainsΣChainsAtlasPNRForumGalleryNewsFAQTripsMembersLoginFeedback
No Recent News for this Train
Other Trains in the News **new
Latest...
Will terminate at Malda Court instead of Malda Town wef 15/11/14 #1267700.
Wed Nov 05, 2014 (10:42PM)
⇐ Return Journey: Train# 75719

75402⇒75720/Dinhata - Malda Court DMU

Time-Table HAS CHANGED.
Nov 20 (4:13PM)
Change Departure Station:
Change Arrival Station:
Post a Train Travel TipPost a Train Travel Tip **new
Post a Comment/Question/Picture/VideoPost a Comment/Question/Picture/Video
Pantry/Catering
✕ NO Pantry Car
✕ NO Catering
RSA - Rake Sharing
Rake/Coach Composition
Loco
News    PNR    Forum    Time-Table    Availability    Fare Chart    Map    Arr/Dep History    Trips    Gallery    ΣChains    X/O    Timeline    
Travel Time: 3h 2m    17 halts    Distance: 142 km    Avg Speed: 46 km/hr
Type: DEMU
Zone: NFR/Northeast Frontier
Departs @ 10:04
Platform# ???
SMTWTFS
Raninagar Jalpaiguri Junction/RQJ 
Arrives @ 13:06
Platform# ???
SMTWTFS
Dalkhola/DLK 

17 halts. 19 intermediate Stations between Raninagar Jalpaiguri Junction and Dalkhola

Show ALL intermediate Stations  Show Old Time-Table

#TrkCodeStation NameX/OArrivesAvgDepartsAvgHaltPFDay#KmSpeedElevZoneAddress
1|--|DHHDinhata (2)  -06:26 06:30-11-126.64839mNFRDist - Coochbehar, West Bengal
2|--|DCHDinhatta College Halt (1)  06:30 06:33-06:31 06:34-1m11-124.24038mNFRDinhata, West Bengal
3|--|VTGBhetaguri (1)  06:42 06:44-06:43 06:45-1m11-117.54443mNFRDist : Cooch Behar, West Bengal
4|--|DWTDewan Hat (1)  06:48 06:50-06:49 06:51-1m11-113.95141mNFRdist - Coachbehar, West Bengal
5|--|COBCooch Behar (1)  07:01 07:03-07:05 07:04-4 1m11-103.74646mNFRDist : Cooch Behar, West Bengal
6|--|NCBNew Cooch Behar Junction (5)  07:10+007:15+05m--1-99.16847mNFRDist : Cooch Behar-736101, West Bengal
7!==!PQZPundibari (1)X  07:25 07:24-07:26 07:25-1m11-89.02453mNFRDist - Coochbehar, West Bengal
8!==!SJRRSajherpar (2)X  07:36-07:37-1m--1-84.54554mNFRDist : Cooch Behar, West Bengal
9!==!GDXGhoksadanga (2)  07:44 07:47-07:46 07:48-2 1m--1-77.04558mNFRDist : Cooch Behar, West Bengal
10!==!GUZGumanihat (2)  07:52 07:55-07:53 07:56-1m11-71.88960mNFRDist : Cooch Behar, West Bengal
11|--|FLKFalakata (3)X  08:01 08:03-08:02 08:04-1m--1-61.33667mNFRDist - Alipurduar, West Bengal
12|--|SXXSalbari (2)  08:20 08:19-08:21 08:20-1m--1-52.46669mNFRDist - jalpaiguri, West Bengal
13|--|KLGRKolai Gram (2)X  08:35 08:26-08:36 08:27-1m--1-45.74575mNFRDist : Jalpaiguri, West Bengal
14|--|DQGDhupguri (2)  08:42 08:36+8:1708:43 08:37+8:171m--1-39.05875mNFRDist - Jalpaiguri, West Bengal
15|--|ATMAltagram (2)X  08:50 08:44-08:51 08:45-1m--1-32.23185mNFRDist - Jalpaiguri, West Bengal
16|--|BYXABetgara (2)X  09:03 09:02-09:04 09:03-1m11-23.53689mNFRDIST - Jalpaiguri, West Bengal
17|--|NMXNew Maynaguri (2)  09:11-09:12-1m--1-18.73886mNFRDist - Jalpaiguri, West Bengal
18|--|NQHNew Domohani (2)X  09:16 09:18-09:17 09:19-1m11-14.83384mNFRDist - Jalpaiguri, West Bengal
19|--|JPEJalpaiguri Road (2)  09:34 09:33-09:35 09:34-1m11-7.21589mNFRDist - Jalpaiguri, West Bengal
20!=-|RQJRaninagar Jalpaiguri Junction (3)»X  10:03-10:04-1m--10.05291mNFRDIST - Jalpaiguri, West Bengal
21!==|BLKBelakoba (2)  10:12 10:13-10:13 10:14-1m117.74399mNFRDist - jalpaiguri, West Bengal
22|==|ABFCAmbari Falakata (2)X  10:22 10:27+010:23 10:28+01m--117.143105mNFRdist - jalpaiguri 735201, West Bengal
23%==|NJPNew Jalpaiguri Junction (8)X  10:40+4510:50+4610m--125.841114mNFRCity-Siliguri . Dist-Jalpaiguri, West Bengal
24%==%RNIRangapani (2)  11:01-11:02-1m--133.259114mNFRSILIGURI Dist - Darjeeling, West Bengal
25%==%NJBNijbari (2)  11:09-11:10-1m--140.161104mNFRFulbari Ghoshpukur Bypass, West Bengal
26%==%CATChattar Hat (2)X  11:17-11:18-1m--147.26891mNFRChattar, West Bengal
27%==%DMZDumdangi (2)X  11:28 11:26-11:29 11:27-1m--156.36786mNFRHaftia Rd, West Bengal
28%==%TMHTin Mile Hat (2)X  11:53 11:35-11:54 11:36-1m--165.26174mNFRTin Mile, West Bengal
29%==%MXJMangurjan (2)  12:00 11:42-12:01 11:43-1m--171.35669mNFRMangurjan, West Bengal
30%==%AUBAluabari Road (2)  12:13 11:55-12:15 11:57-2m--182.5680mNFRDist - uttar Dinajpur, West Bengal
31%==%GEORGunjariaX  12:22 12:04-12:23 12:05-1m--190.55764mNFRNational Highway 31, West Bengal
32%==%GILGaisal (3)X  12:29 12:11-12:30 12:12-1m--196.27562mNFRNational Highway 31, West Bengal
33%==%PJPPanjipara (3)X  12:38 12:19-12:39 12:20-1m--1104.94955mNFRNational Highway 31, West Bengal
34%==%KNEKishanGanj (3)  12:47 12:30+5012:49 12:32+502m--1113.112652mNFRKishanganj, Bihar
35%==%HWRHatwar (2)  13:00 12:36-13:01 12:37-1m--1121.62546mNFRNational Highway 31, West Bengal
36%==%KKAKanki (3)  13:07 12:50-13:08 12:51-1m--1126.96547mNFRKanki, West Bengal
37%==%SJKLSurja Kamal (2)X  13:15 12:58-13:16 12:59-1m--1134.66144mNFRNational Highway 31, West Bengal
38%==%DLKDalkhola (3)•  13:23 13:06-13:25 13:08-2m--1141.76144mNFRDalkola, West Bengal
39%==%TETATelta (2)  13:33 13:16-13:34 13:17-1m--1149.83440mNFRRupauli, Bihar
40%==%AHLAjharail  13:39 13:22-13:40 13:23-1m--1152.67537mNFRNational Highway 34, West Bengal
41%==%SUDSudhani (2)  13:47 13:28-13:48 13:29-1m--1158.85138mNFRState Highway 65, Bihar
42%==%SJGMSanjay Gram  14:11 13:33-14:12 13:34-1m--1162.24234mNFRSanjay Gram, West Bengal
43%==%BOEBarsoi Junction (3)X  14:19 13:46+5814:21 13:48+582m--1170.74337mNFRdist- katihar, Bihar
44%--%MFAMukuria Junction (2)  14:26 13:54-14:27 13:55-1m--1175.04832mNFRMukuria, Bihar
45%==%BWPBBhawanipur Bihar (2)  14:32 14:00-14:33 14:01-1m21179.05236mNFRBhawanipur, Bihar
46%==%AZRAzamnagar Road (3)  14:38 14:06-14:39 14:07-1m--1183.47234mNFRAzamnagar, Bihar
47%==%KMPHKamalpur Halt (2)  14:57 14:11-14:58 14:12-1m--1188.24332mNFRKamalpur, Bihar
48%==%KWEKhurial (2)  15:01 14:16-15:02 14:17-1m--1191.07233mNFRKhurial, Bihar
49%==%BAHNBabhabgaon Halt (2)  15:06 14:21-15:07 14:22-1m--1195.81631mNFRBabhabgaon, West Bengal
50%==%KDPRKumedpur Junction (5)XO  15:20 14:32-15:22 14:34-2m--1198.5933mNFRDist. - Malda, West Bengal
51%==%HCRHarischandrapur (2)  15:28 15:18+4315:29 15:19+431m--1205.24231mNFRHarischandrapur, West Bengal
52%==%MQGMilangarh (2)  15:35 15:26-15:36 15:27-1m--1210.14229mNFRMilangarh, West Bengal
53%==%BKRDBhaluka Road F (2)X  15:42 15:32+2:1615:43 15:33+2:161m--1213.67530mNFRBhaluka, West Bengal
54%==%MFZMalahar (2)X  15:48 15:38-15:49 15:39-1m--1219.86031mNFRNational Highway 81, West Bengal
55%==%SMSamsi (2)X  15:55 15:45+1:0415:57 15:47+1:042m--1225.84932mNFRdist - Malda, West Bengal
56%==%SRPUSripur Halt (2)  16:02 15:52-16:03 15:53-1m--1229.97227mNFRSripur, West Bengal
57%==%KMRJKumarganj (2)  16:07 15:57-16:08 15:58-1m--1234.75728mNFRNational Highway 34, West Bengal
58%==%MBCMahananda Bridge (2)X  16:12 16:02-16:13 16:03-1m--1238.52428mNFRMahananda, West Bengal
59%==%EKIEklakhi Junction (4)X  16:17 16:10-16:18 16:11-1m--1241.22833mNFRDistt. - Malda, West Bengal
60%==%ADFAdina (2)  16:35 16:25+1:5116:36 16:26+1:511m--1247.82533mNFRNational Highway 34, West Bengal
61%==%OMLFOld Malda Junction (3)  16:53 16:43-16:54 16:44-1m--1254.9731mNFRDist - Malda, West Bengal
62%--%MLFCMalda Court (1) new halt!!  17:25-00:01-396m11259.8-230mNFRold Malda, West Bengal
63%==%MLDTMalda Town (5)  17:25+1:10---1270.3-30mERDist - Malda, West Bengal
Scroll to Top
Scroll to Bottom